Time;durP1;ratioP1;P1;durP2;ratioP2;P2;SDS_P1;SDS_P2;PMS_P1;PMS_P2;Temp;Humidity;BMP_temperature;BMP_pressure;BME280_temperature;BME280_humidity;BME280_pressure;Samples;Min_cycle;Max_cycle;Signal;HPM_P1;HPM_P2
2023/10/31 00:00:58;;;;;;;1.43;1.43;;;10.10;99.90;;;;;;486744;240;28389;-71
2023/10/31 00:02:59;;;;;;;1.33;1.30;;;10.10;99.90;;;;;;486777;244;28488;-71
2023/10/31 00:05:00;;;;;;;5.33;1.40;;;10.10;99.90;;;;;;486845;244;28698;-73
2023/10/31 00:07:01;;;;;;;1.77;1.60;;;10.00;99.90;;;;;;486816;244;28063;-71
2023/10/31 00:09:03;;;;;;;1.50;1.40;;;10.00;99.90;;;;;;486763;244;27996;-72
2023/10/31 00:11:04;;;;;;;1.77;1.67;;;10.00;99.90;;;;;;486807;244;27801;-71
2023/10/31 00:13:05;;;;;;;1.53;1.40;;;9.90;99.90;;;;;;486877;244;28018;-71
2023/10/31 00:15:06;;;;;;;2.30;1.67;;;9.80;99.90;;;;;;486727;244;27512;-72
2023/10/31 00:17:08;;;;;;;2.80;1.70;;;9.80;99.90;;;;;;486805;244;27859;-71
2023/10/31 00:19:09;;;;;;;2.23;2.03;;;9.80;99.90;;;;;;486825;244;28026;-71
2023/10/31 00:21:10;;;;;;;1.93;1.47;;;9.70;99.90;;;;;;486777;244;27989;-71
2023/10/31 00:23:11;;;;;;;1.50;1.40;;;9.70;99.90;;;;;;486819;244;27968;-71
2023/10/31 00:25:13;;;;;;;1.33;1.33;;;9.60;99.90;;;;;;486812;244;27902;-71
2023/10/31 00:27:15;;;;;;;1.60;1.50;;;9.60;99.90;;;;;;486767;244;28112;-71
2023/10/31 00:29:15;;;;;;;4.63;1.50;;;9.60;99.90;;;;;;486750;244;28000;-71
2023/10/31 00:31:16;;;;;;;1.67;1.57;;;9.60;99.90;;;;;;486794;244;28551;-72
2023/10/31 00:33:18;;;;;;;2.00;1.60;;;9.60;99.90;;;;;;486873;244;28063;-71
2023/10/31 00:35:19;;;;;;;1.40;1.40;;;9.70;99.90;;;;;;486902;244;28108;-71
2023/10/31 00:37:20;;;;;;;1.40;1.30;;;9.70;99.90;;;;;;486833;244;28306;-71
2023/10/31 00:39:21;;;;;;;1.70;1.60;;;9.70;99.90;;;;;;486829;244;28695;-71
2023/10/31 00:41:23;;;;;;;2.57;1.63;;;9.70;99.90;;;;;;486790;244;28081;-71
2023/10/31 00:43:24;;;;;;;2.13;1.60;;;9.70;99.90;;;;;;486810;244;27931;-71
2023/10/31 00:45:25;;;;;;;2.97;1.43;;;9.70;99.90;;;;;;486786;244;28045;-71
2023/10/31 00:47:26;;;;;;;2.77;1.50;;;9.70;99.90;;;;;;486783;244;27974;-71
2023/10/31 00:49:28;;;;;;;1.80;1.50;;;9.70;99.90;;;;;;486847;240;28117;-71
2023/10/31 00:51:29;;;;;;;1.77;1.40;;;9.70;99.90;;;;;;486806;244;28021;-71
2023/10/31 00:53:30;;;;;;;1.37;1.20;;;9.60;99.90;;;;;;486808;244;27610;-71
2023/10/31 00:55:31;;;;;;;2.00;1.40;;;9.70;99.90;;;;;;486852;244;28031;-71
2023/10/31 00:57:33;;;;;;;1.20;1.20;;;9.70;99.90;;;;;;486788;244;28040;-72
2023/10/31 00:59:34;;;;;;;2.20;1.30;;;9.60;99.90;;;;;;486816;244;27484;-71
2023/10/31 01:01:35;;;;;;;1.30;1.20;;;9.60;99.90;;;;;;486825;244;28577;-71
2023/10/31 01:03:37;;;;;;;1.50;1.30;;;9.60;99.90;;;;;;486818;244;28646;-71
2023/10/31 01:05:38;;;;;;;1.60;1.50;;;9.60;99.90;;;;;;486792;244;28501;-71
2023/10/31 01:07:39;;;;;;;1.83;1.67;;;9.70;99.90;;;;;;486806;244;28611;-73
2023/10/31 01:09:40;;;;;;;1.37;1.20;;;9.70;99.90;;;;;;486834;244;28456;-71
2023/10/31 01:11:41;;;;;;;4.70;1.60;;;9.70;99.90;;;;;;486863;244;27961;-72
2023/10/31 01:13:43;;;;;;;3.47;1.50;;;9.70;99.90;;;;;;486878;244;27614;-71
2023/10/31 01:15:44;;;;;;;1.60;1.50;;;9.70;99.90;;;;;;486860;244;28019;-71
2023/10/31 01:17:45;;;;;;;2.20;1.40;;;9.70;99.90;;;;;;486709;240;27885;-73
2023/10/31 01:19:46;;;;;;;2.40;1.23;;;9.70;99.90;;;;;;486451;244;28469;-71
2023/10/31 01:21:48;;;;;;;1.40;1.30;;;9.70;99.90;;;;;;486136;244;27911;-71
2023/10/31 01:23:49;;;;;;;1.50;1.37;;;9.70;99.90;;;;;;486233;244;28039;-71
2023/10/31 01:25:50;;;;;;;5.60;1.50;;;9.70;99.90;;;;;;486855;244;28022;-71
2023/10/31 01:27:51;;;;;;;1.57;1.47;;;9.70;99.90;;;;;;486772;244;28492;-71
2023/10/31 01:29:53;;;;;;;1.80;1.20;;;9.70;99.90;;;;;;486788;244;28739;-71
2023/10/31 01:31:54;;;;;;;1.33;1.23;;;9.70;99.90;;;;;;486788;244;28521;-71
2023/10/31 01:33:55;;;;;;;1.90;1.47;;;9.80;99.90;;;;;;486796;244;28512;-71
2023/10/31 01:35:56;;;;;;;1.90;1.80;;;9.80;99.90;;;;;;486824;244;28369;-71
2023/10/31 01:37:58;;;;;;;1.50;1.40;;;9.70;99.90;;;;;;486783;244;28595;-71
2023/10/31 01:39:59;;;;;;;2.67;1.43;;;9.70;99.90;;;;;;486798;244;27955;-71
2023/10/31 01:42:00;;;;;;;5.47;1.70;;;9.70;99.90;;;;;;486779;244;27901;-71
2023/10/31 01:44:01;;;;;;;1.30;1.30;;;9.70;99.90;;;;;;486804;244;28039;-73
2023/10/31 01:46:03;;;;;;;2.20;1.77;;;9.70;99.90;;;;;;486814;244;28050;-71
2023/10/31 01:48:04;;;;;;;4.60;2.00;;;9.70;99.90;;;;;;486790;244;27987;-71
2023/10/31 01:50:05;;;;;;;2.13;1.73;;;9.70;99.90;;;;;;486802;244;27935;-71
2023/10/31 01:52:06;;;;;;;2.50;1.83;;;9.70;99.90;;;;;;486800;244;28004;-72
2023/10/31 01:54:08;;;;;;;1.87;1.77;;;9.70;99.90;;;;;;486909;244;27797;-71
2023/10/31 01:56:09;;;;;;;1.70;1.60;;;9.70;99.90;;;;;;486874;243;27978;-71
2023/10/31 01:58:10;;;;;;;1.93;1.70;;;9.70;99.90;;;;;;486864;244;28096;-72
2023/10/31 02:00:11;;;;;;;2.93;1.80;;;9.70;99.90;;;;;;486798;244;27954;-71
2023/10/31 02:02:13;;;;;;;3.40;2.37;;;9.70;99.90;;;;;;486835;244;27968;-71
2023/10/31 02:04:14;;;;;;;1.70;1.60;;;9.70;99.90;;;;;;486828;244;28034;-71
2023/10/31 02:06:15;;;;;;;2.00;1.90;;;9.70;99.90;;;;;;486846;244;27879;-70
2023/10/31 02:08:16;;;;;;;1.80;1.70;;;9.70;99.90;;;;;;486886;244;28525;-71
2023/10/31 02:10:18;;;;;;;2.20;2.00;;;9.70;99.90;;;;;;486907;244;28065;-71
2023/10/31 02:12:19;;;;;;;3.53;1.50;;;9.70;99.90;;;;;;486897;244;28410;-71
2023/10/31 02:14:20;;;;;;;2.10;1.70;;;9.70;99.90;;;;;;486898;244;28502;-72
2023/10/31 02:16:21;;;;;;;1.70;1.60;;;9.70;99.90;;;;;;486878;244;28074;-71
2023/10/31 02:18:22;;;;;;;4.23;2.40;;;9.70;99.90;;;;;;486785;244;28209;-71
2023/10/31 02:20:24;;;;;;;2.40;2.20;;;9.70;99.90;;;;;;486812;244;27923;-72
2023/10/31 02:22:25;;;;;;;2.43;2.33;;;9.70;99.90;;;;;;486809;244;28056;-71
2023/10/31 02:24:26;;;;;;;3.37;1.97;;;9.70;99.90;;;;;;486807;244;27881;-72
2023/10/31 02:26:27;;;;;;;1.80;1.70;;;9.70;99.90;;;;;;486821;244;27976;-71
2023/10/31 02:28:29;;;;;;;3.80;2.10;;;9.70;99.90;;;;;;486832;244;28015;-71
2023/10/31 02:30:30;;;;;;;2.00;1.80;;;9.70;99.90;;;;;;486909;244;28091;-73
2023/10/31 02:32:31;;;;;;;2.80;1.87;;;9.70;99.90;;;;;;486781;244;28101;-70
2023/10/31 02:34:34;;;;;;;2.00;1.50;;;9.70;99.90;;;;;;486871;244;27678;-71
2023/10/31 02:36:34;;;;;;;1.83;1.73;;;9.70;99.90;;;;;;486600;244;28026;-71
2023/10/31 02:38:35;;;;;;;1.93;1.43;;;9.70;99.90;;;;;;486804;244;27952;-72
2023/10/31 02:40:36;;;;;;;1.67;1.57;;;9.60;99.90;;;;;;486828;244;28013;-72
2023/10/31 02:42:37;;;;;;;1.57;1.27;;;9.70;99.90;;;;;;486804;244;27928;-71
2023/10/31 02:44:39;;;;;;;1.80;1.70;;;9.70;99.90;;;;;;486838;244;27527;-71
2023/10/31 02:46:40;;;;;;;1.87;1.77;;;9.60;99.90;;;;;;486878;240;28542;-71
2023/10/31 02:48:41;;;;;;;2.43;1.63;;;9.60;99.90;;;;;;486893;244;28058;-71
2023/10/31 02:50:42;;;;;;;1.80;1.70;;;9.70;99.90;;;;;;486897;244;28476;-72
2023/10/31 02:52:44;;;;;;;1.67;1.57;;;9.60;99.90;;;;;;486871;244;28050;-71
2023/10/31 02:54:45;;;;;;;1.60;1.50;;;9.60;99.90;;;;;;486830;244;28582;-71
2023/10/31 02:56:46;;;;;;;2.30;1.30;;;9.60;99.90;;;;;;486850;244;28009;-72
2023/10/31 02:58:47;;;;;;;1.37;1.27;;;9.60;99.90;;;;;;486828;244;27813;-71
2023/10/31 03:00:49;;;;;;;1.50;1.40;;;9.60;99.90;;;;;;486819;244;27906;-71
2023/10/31 03:02:50;;;;;;;2.87;1.53;;;9.60;99.90;;;;;;486754;244;28012;-71
2023/10/31 03:04:51;;;;;;;1.50;1.40;;;9.60;99.90;;;;;;486830;244;28010;-71
2023/10/31 03:06:52;;;;;;;4.93;1.70;;;9.60;99.90;;;;;;486857;244;28076;-71
2023/10/31 03:08:54;;;;;;;2.30;1.70;;;9.50;99.90;;;;;;486766;244;27947;-71
2023/10/31 03:10:55;;;;;;;1.50;1.40;;;9.60;99.90;;;;;;486776;244;27803;-72
2023/10/31 03:12:56;;;;;;;1.67;1.57;;;9.50;99.90;;;;;;486783;244;28093;-71
2023/10/31 03:14:57;;;;;;;2.40;1.43;;;9.50;99.90;;;;;;486788;244;27927;-74
2023/10/31 03:16:59;;;;;;;1.63;1.53;;;9.50;99.90;;;;;;486800;244;27956;-71
2023/10/31 03:19:00;;;;;;;2.60;1.67;;;9.50;99.90;;;;;;486768;244;27749;-72
2023/10/31 03:21:02;;;;;;;2.70;1.40;;;9.50;99.90;;;;;;486826;244;27575;-71
2023/10/31 03:23:03;;;;;;;1.83;1.50;;;9.50;99.90;;;;;;486853;244;28145;-72
2023/10/31 03:25:04;;;;;;;4.60;1.53;;;9.50;99.90;;;;;;486839;244;27964;-70
2023/10/31 03:27:05;;;;;;;1.40;1.30;;;9.50;99.90;;;;;;486779;244;28534;-71
2023/10/31 03:29:07;;;;;;;3.80;1.30;;;9.50;99.90;;;;;;486866;244;29122;-71
2023/10/31 03:31:08;;;;;;;2.37;1.63;;;9.50;99.90;;;;;;486809;244;28603;-71
2023/10/31 03:33:10;;;;;;;1.80;1.57;;;9.50;99.90;;;;;;486779;244;28281;-71
2023/10/31 03:35:11;;;;;;;2.27;1.70;;;9.50;99.90;;;;;;486737;244;28492;-71
2023/10/31 03:37:12;;;;;;;1.60;1.50;;;9.50;99.90;;;;;;486852;244;27939;-70
2023/10/31 03:39:13;;;;;;;1.57;1.47;;;9.50;99.90;;;;;;486838;244;28017;-72
2023/10/31 03:41:14;;;;;;;2.83;1.30;;;9.50;99.90;;;;;;486833;244;27938;-71
2023/10/31 03:43:16;;;;;;;2.53;1.70;;;9.50;99.90;;;;;;486857;244;28502;-71
2023/10/31 03:45:17;;;;;;;1.57;1.47;;;9.50;99.90;;;;;;486861;244;29323;-71
2023/10/31 03:47:18;;;;;;;1.47;1.37;;;9.50;99.90;;;;;;486914;244;28302;-71
2023/10/31 03:49:19;;;;;;;2.00;1.60;;;9.50;99.90;;;;;;486781;244;28496;-71
2023/10/31 03:51:21;;;;;;;1.80;1.33;;;9.50;99.90;;;;;;486804;244;28131;-71
2023/10/31 03:53:22;;;;;;;1.40;1.30;;;9.50;99.90;;;;;;486842;244;27856;-71
2023/10/31 03:55:23;;;;;;;1.53;1.40;;;9.50;99.90;;;;;;486883;244;28212;-72
2023/10/31 03:57:24;;;;;;;1.60;1.50;;;9.50;99.90;;;;;;486802;244;28428;-71
2023/10/31 03:59:26;;;;;;;2.10;1.70;;;9.50;99.90;;;;;;486836;244;28050;-71
2023/10/31 04:01:27;;;;;;;1.53;1.37;;;9.50;99.90;;;;;;486853;244;28071;-71
2023/10/31 04:03:28;;;;;;;1.40;1.30;;;9.40;99.90;;;;;;486820;244;27846;-71
2023/10/31 04:05:29;;;;;;;1.90;1.70;;;9.40;99.90;;;;;;486817;244;28158;-72
2023/10/31 04:07:31;;;;;;;1.83;1.43;;;9.40;99.90;;;;;;486785;244;28128;-71
2023/10/31 04:09:32;;;;;;;2.00;1.30;;;9.40;99.90;;;;;;486848;244;28090;-72
2023/10/31 04:11:33;;;;;;;1.30;1.30;;;9.50;99.90;;;;;;486791;244;28013;-71
2023/10/31 04:13:34;;;;;;;1.50;1.40;;;9.40;99.90;;;;;;486817;244;28078;-71
2023/10/31 04:15:36;;;;;;;3.37;1.47;;;9.40;99.90;;;;;;486847;244;28228;-71
2023/10/31 04:17:37;;;;;;;2.97;1.60;;;9.40;99.90;;;;;;486858;244;28192;-71
2023/10/31 04:19:38;;;;;;;2.80;1.93;;;9.40;99.90;;;;;;486774;244;27945;-71
2023/10/31 04:21:41;;;;;;;1.40;1.30;;;9.40;99.90;;;;;;486814;244;28245;-74
2023/10/31 04:23:42;;;;;;;1.40;1.30;;;9.40;99.90;;;;;;486878;244;28568;-71
2023/10/31 04:25:44;;;;;;;3.60;1.30;;;9.40;99.90;;;;;;486889;240;28365;-72
2023/10/31 04:27:45;;;;;;;1.40;1.30;;;9.40;99.90;;;;;;486795;244;27940;-71
2023/10/31 04:29:46;;;;;;;2.00;1.33;;;9.40;99.90;;;;;;486788;244;28371;-71
2023/10/31 04:31:47;;;;;;;3.93;1.70;;;9.50;99.90;;;;;;486805;244;29262;-71
2023/10/31 04:33:49;;;;;;;2.60;1.50;;;9.40;99.90;;;;;;486794;244;27475;-71
2023/10/31 04:35:50;;;;;;;1.70;1.60;;;9.40;99.90;;;;;;486842;244;27885;-71
2023/10/31 04:37:51;;;;;;;3.47;1.80;;;9.40;99.90;;;;;;486769;244;28111;-72
2023/10/31 04:39:52;;;;;;;1.93;1.73;;;9.40;99.90;;;;;;486846;244;28021;-71
2023/10/31 04:41:54;;;;;;;2.30;1.60;;;9.40;99.90;;;;;;486804;244;28120;-72
2023/10/31 04:43:55;;;;;;;1.63;1.30;;;9.40;99.90;;;;;;486789;244;27951;-71
2023/10/31 04:45:56;;;;;;;1.93;1.73;;;9.40;99.90;;;;;;486782;244;28003;-71
2023/10/31 04:47:57;;;;;;;3.30;1.63;;;9.40;99.90;;;;;;486800;244;28033;-71
2023/10/31 04:49:59;;;;;;;2.20;1.77;;;9.30;99.90;;;;;;486778;244;28114;-71
2023/10/31 04:52:00;;;;;;;2.93;1.40;;;9.40;99.90;;;;;;486807;244;28093;-73
2023/10/31 04:54:01;;;;;;;1.63;1.40;;;9.40;99.90;;;;;;486803;244;27872;-71
2023/10/31 04:56:02;;;;;;;1.37;1.27;;;9.40;99.90;;;;;;486884;244;28004;-72
2023/10/31 04:58:04;;;;;;;1.93;1.80;;;9.40;99.90;;;;;;486794;244;27964;-71
2023/10/31 05:00:06;;;;;;;4.10;2.80;;;9.30;99.90;;;;;;486816;244;28093;-71
2023/10/31 05:02:06;;;;;;;2.93;1.80;;;9.30;99.90;;;;;;486662;244;28683;-72
2023/10/31 05:04:07;;;;;;;1.57;1.47;;;9.30;99.90;;;;;;486784;244;28292;-71
2023/10/31 05:06:09;;;;;;;2.37;1.73;;;9.30;99.90;;;;;;486852;244;28565;-71
2023/10/31 05:08:12;;;;;;;3.53;1.73;;;9.40;99.90;;;;;;486863;244;28070;-71
2023/10/31 05:10:14;;;;;;;1.90;1.60;;;9.40;99.90;;;;;;486881;244;27897;-71
2023/10/31 05:12:15;;;;;;;8.53;1.90;;;9.40;99.90;;;;;;486855;244;28070;-71
2023/10/31 05:14:16;;;;;;;2.30;1.80;;;9.30;99.90;;;;;;486796;244;27897;-71
2023/10/31 05:16:18;;;;;;;2.30;1.50;;;9.40;99.90;;;;;;486801;244;28021;-70
2023/10/31 05:18:19;;;;;;;3.03;1.53;;;9.40;99.90;;;;;;486775;244;28172;-71
2023/10/31 05:20:22;;;;;;;5.63;1.93;;;9.30;99.90;;;;;;486859;244;28023;-72
2023/10/31 05:22:23;;;;;;;1.80;1.70;;;9.40;99.90;;;;;;486798;244;27741;-72
2023/10/31 05:24:24;;;;;;;2.50;1.53;;;9.30;99.90;;;;;;486810;244;28321;-71
2023/10/31 05:26:28;;;;;;;2.50;2.10;;;9.30;99.90;;;;;;486803;240;28460;-71
2023/10/31 05:28:28;;;;;;;4.23;2.00;;;9.20;99.90;;;;;;486752;244;28419;-71
2023/10/31 05:30:29;;;;;;;3.53;2.10;;;9.20;99.90;;;;;;486806;244;27966;-72
2023/10/31 05:32:30;;;;;;;3.20;1.77;;;9.30;99.90;;;;;;486799;244;27773;-74
2023/10/31 05:34:34;;;;;;;1.87;1.67;;;9.30;99.90;;;;;;486816;244;28482;-72
2023/10/31 05:36:35;;;;;;;1.60;1.50;;;9.20;99.90;;;;;;486777;244;28021;-71
2023/10/31 05:38:37;;;;;;;2.40;1.50;;;9.20;99.90;;;;;;486802;244;28085;-73
2023/10/31 05:40:38;;;;;;;1.90;1.70;;;9.20;99.90;;;;;;486656;244;28180;-71
2023/10/31 05:42:40;;;;;;;6.53;1.60;;;9.20;99.90;;;;;;486801;244;27977;-71
2023/10/31 05:44:42;;;;;;;2.13;1.57;;;9.20;99.90;;;;;;486815;244;28062;-71
2023/10/31 05:46:44;;;;;;;1.63;1.43;;;9.20;99.90;;;;;;486842;244;27979;-71
2023/10/31 05:48:45;;;;;;;1.40;1.40;;;9.20;99.90;;;;;;486867;244;28004;-72
2023/10/31 05:50:47;;;;;;;2.80;1.40;;;9.20;99.90;;;;;;486792;244;28088;-72
2023/10/31 05:52:48;;;;;;;1.77;1.50;;;9.20;99.90;;;;;;486787;244;27847;-71
2023/10/31 05:54:50;;;;;;;3.83;1.60;;;9.20;99.90;;;;;;486794;244;27874;-71
2023/10/31 05:56:53;;;;;;;3.10;1.50;;;9.20;99.90;;;;;;486851;244;28195;-71
2023/10/31 05:58:54;;;;;;;4.37;2.47;;;9.20;99.90;;;;;;486846;244;28106;-71
2023/10/31 06:00:57;;;;;;;5.70;2.63;;;9.20;99.90;;;;;;486850;244;27980;-71
2023/10/31 06:02:58;;;;;;;5.13;1.90;;;9.20;99.90;;;;;;486858;244;28046;-71
2023/10/31 06:04:59;;;;;;;2.40;1.70;;;9.20;99.90;;;;;;486796;244;28017;-73
2023/10/31 06:07:01;;;;;;;4.93;1.70;;;9.20;99.90;;;;;;486790;244;27977;-71
2023/10/31 06:09:03;;;;;;;2.50;1.50;;;9.20;99.90;;;;;;486796;244;28036;-71
2023/10/31 06:11:04;;;;;;;2.03;1.60;;;9.20;99.90;;;;;;486744;244;28097;-71
2023/10/31 06:13:05;;;;;;;4.20;2.00;;;9.20;99.90;;;;;;486749;244;27999;-71
2023/10/31 06:15:08;;;;;;;2.40;1.90;;;9.20;99.90;;;;;;486745;244;28636;-71
2023/10/31 06:17:08;;;;;;;2.40;1.87;;;9.20;99.90;;;;;;486699;244;28017;-72
2023/10/31 06:19:09;;;;;;;4.50;2.03;;;9.30;99.90;;;;;;486821;244;27899;-72
2023/10/31 06:21:11;;;;;;;1.60;1.37;;;9.30;99.90;;;;;;486848;244;27970;-71
2023/10/31 06:23:13;;;;;;;1.77;1.50;;;9.20;99.90;;;;;;486829;244;27888;-72
2023/10/31 06:25:14;;;;;;;5.00;1.63;;;9.20;99.90;;;;;;486795;244;28005;-71
2023/10/31 06:27:15;;;;;;;2.03;1.50;;;9.30;99.90;;;;;;486795;244;28003;-71
2023/10/31 06:29:17;;;;;;;1.40;1.30;;;9.30;99.90;;;;;;486795;244;27487;-72
2023/10/31 06:31:19;;;;;;;3.93;1.77;;;9.20;99.90;;;;;;486847;244;28011;-71
2023/10/31 06:33:21;;;;;;;5.30;1.90;;;9.20;99.90;;;;;;486865;244;28019;-71
2023/10/31 06:35:24;;;;;;;3.90;1.87;;;9.30;99.90;;;;;;486852;244;28022;-71
2023/10/31 06:37:23;;;;;;;6.00;1.77;;;9.30;99.90;;;;;;486665;244;28003;-71
2023/10/31 06:39:25;;;;;;;4.50;2.10;;;9.20;99.90;;;;;;486782;244;27936;-71
2023/10/31 06:41:26;;;;;;;6.10;2.03;;;9.30;99.90;;;;;;486773;244;28666;-71
2023/10/31 06:43:28;;;;;;;3.43;1.70;;;9.20;99.90;;;;;;486793;244;27662;-72
2023/10/31 06:45:30;;;;;;;6.20;2.07;;;9.20;99.90;;;;;;486775;244;28590;-71
2023/10/31 06:47:32;;;;;;;2.87;1.50;;;9.30;99.90;;;;;;486862;244;28341;-71
2023/10/31 06:49:33;;;;;;;9.97;1.67;;;9.30;99.90;;;;;;486847;244;28497;-71
2023/10/31 06:51:34;;;;;;;2.80;1.47;;;9.20;99.90;;;;;;486830;244;28390;-71
2023/10/31 06:53:36;;;;;;;2.50;1.30;;;9.30;99.90;;;;;;486802;244;28100;-72
2023/10/31 06:55:37;;;;;;;3.00;1.70;;;9.30;99.90;;;;;;486749;244;28038;-71
2023/10/31 06:57:38;;;;;;;1.70;1.50;;;9.30;99.90;;;;;;486883;244;27933;-72
2023/10/31 06:59:40;;;;;;;1.50;1.33;;;9.30;99.90;;;;;;486740;244;27733;-73
2023/10/31 07:01:41;;;;;;;5.03;1.67;;;9.30;99.90;;;;;;486871;244;27818;-71
2023/10/31 07:03:42;;;;;;;2.73;1.60;;;9.30;99.90;;;;;;486883;244;27959;-71
2023/10/31 07:05:43;;;;;;;5.13;2.03;;;9.30;99.90;;;;;;486771;244;27903;-71
2023/10/31 07:07:45;;;;;;;2.50;1.57;;;9.30;99.90;;;;;;486771;244;27968;-72
2023/10/31 07:09:46;;;;;;;5.47;1.40;;;9.30;99.90;;;;;;486797;244;28075;-72
2023/10/31 07:11:47;;;;;;;1.70;1.13;;;9.30;99.90;;;;;;486802;244;27861;-71
2023/10/31 07:13:48;;;;;;;2.30;1.90;;;9.30;99.90;;;;;;486767;244;27845;-72
2023/10/31 07:15:50;;;;;;;2.90;2.03;;;9.30;99.90;;;;;;486758;244;28046;-71
2023/10/31 07:17:51;;;;;;;3.20;1.70;;;9.30;99.90;;;;;;486786;244;28361;-71
2023/10/31 07:19:52;;;;;;;2.70;1.60;;;9.30;99.90;;;;;;486780;244;28469;-72
2023/10/31 07:21:54;;;;;;;1.80;1.40;;;9.30;99.90;;;;;;486845;244;28470;-72
2023/10/31 07:23:55;;;;;;;2.40;1.60;;;9.30;99.90;;;;;;486762;244;28490;-71
2023/10/31 07:25:56;;;;;;;5.63;2.10;;;9.30;99.90;;;;;;486740;244;28556;-71
2023/10/31 07:27:57;;;;;;;3.70;1.50;;;9.20;99.90;;;;;;486798;244;28051;-71
2023/10/31 07:29:58;;;;;;;1.50;1.40;;;9.20;99.90;;;;;;486776;244;28025;-72
2023/10/31 07:32:00;;;;;;;2.23;1.37;;;9.30;99.90;;;;;;486778;244;27730;-71
2023/10/31 07:34:02;;;;;;;4.03;1.70;;;9.30;99.90;;;;;;486775;244;28089;-71
2023/10/31 07:36:02;;;;;;;2.40;1.60;;;9.30;99.90;;;;;;486722;244;28014;-72
2023/10/31 07:38:03;;;;;;;4.87;1.40;;;9.20;99.90;;;;;;486837;244;27524;-71
2023/10/31 07:40:05;;;;;;;4.40;1.93;;;9.20;99.90;;;;;;486793;244;28019;-73
2023/10/31 07:42:06;;;;;;;4.03;1.73;;;9.30;99.90;;;;;;486771;244;28108;-71
2023/10/31 07:44:07;;;;;;;6.00;1.93;;;9.40;99.90;;;;;;486754;244;28133;-71
2023/10/31 07:46:08;;;;;;;3.07;2.10;;;9.30;99.90;;;;;;486853;240;28011;-72
2023/10/31 07:48:10;;;;;;;6.90;1.70;;;9.40;99.90;;;;;;486805;244;28060;-72
2023/10/31 07:50:11;;;;;;;2.93;1.70;;;9.40;99.90;;;;;;486775;240;28002;-72
2023/10/31 07:52:12;;;;;;;4.23;1.80;;;9.50;99.90;;;;;;486743;244;28042;-71
2023/10/31 07:54:13;;;;;;;5.63;1.97;;;9.40;99.90;;;;;;486768;244;28086;-72
2023/10/31 07:56:15;;;;;;;6.77;2.30;;;9.40;99.90;;;;;;486818;244;28480;-71
2023/10/31 07:58:16;;;;;;;4.53;2.10;;;9.50;99.90;;;;;;486766;244;28528;-71
2023/10/31 08:00:17;;;;;;;4.63;1.90;;;9.50;99.90;;;;;;486731;244;28463;-71
2023/10/31 08:02:18;;;;;;;3.00;1.80;;;9.60;99.90;;;;;;486806;244;28636;-72
2023/10/31 08:04:20;;;;;;;3.33;1.83;;;9.60;99.90;;;;;;486837;244;28060;-71
2023/10/31 08:06:21;;;;;;;7.00;2.00;;;9.60;99.90;;;;;;486741;244;28059;-72
2023/10/31 08:08:22;;;;;;;6.23;1.80;;;9.60;99.90;;;;;;486855;240;27968;-71
2023/10/31 08:10:24;;;;;;;3.53;1.77;;;9.60;99.90;;;;;;486771;244;28107;-71
2023/10/31 08:12:25;;;;;;;3.97;2.17;;;9.60;99.90;;;;;;486778;244;27645;-71
2023/10/31 08:14:27;;;;;;;5.00;1.90;;;9.60;99.90;;;;;;486786;244;28081;-71
2023/10/31 08:16:28;;;;;;;3.33;1.73;;;9.60;99.90;;;;;;486753;244;27860;-71
2023/10/31 08:18:29;;;;;;;1.57;1.40;;;9.60;99.90;;;;;;486775;244;28414;-71
2023/10/31 08:20:33;;;;;;;2.93;1.97;;;9.60;99.90;;;;;;486751;240;29180;-71
2023/10/31 08:22:32;;;;;;;3.57;1.70;;;9.70;99.90;;;;;;486544;244;28283;-71
2023/10/31 08:24:35;;;;;;;7.00;2.10;;;9.70;99.90;;;;;;486798;244;28636;-71
2023/10/31 08:26:34;;;;;;;3.43;2.00;;;9.70;99.90;;;;;;486607;244;28098;-71
2023/10/31 08:28:35;;;;;;;4.50;2.20;;;9.70;99.90;;;;;;486833;244;28009;-71
2023/10/31 08:30:38;;;;;;;6.23;2.40;;;9.80;99.90;;;;;;486837;244;27664;-73
2023/10/31 08:32:38;;;;;;;2.80;1.80;;;9.80;99.90;;;;;;486798;244;28070;-71
2023/10/31 08:34:39;;;;;;;3.90;2.07;;;9.90;99.90;;;;;;486776;244;27787;-72
2023/10/31 08:36:40;;;;;;;8.27;2.30;;;9.90;99.90;;;;;;486785;244;28073;-71
2023/10/31 08:38:42;;;;;;;5.33;2.47;;;10.00;99.90;;;;;;486874;244;28032;-72
2023/10/31 08:40:43;;;;;;;7.27;1.70;;;10.00;99.90;;;;;;486885;244;27891;-73
2023/10/31 08:42:44;;;;;;;6.60;2.40;;;10.00;99.90;;;;;;486776;244;28005;-71
2023/10/31 08:44:45;;;;;;;5.70;1.90;;;10.00;99.90;;;;;;486848;244;28142;-72
2023/10/31 08:46:47;;;;;;;2.80;1.70;;;10.00;99.90;;;;;;486854;244;28013;-71
2023/10/31 08:48:48;;;;;;;5.93;2.57;;;10.00;99.90;;;;;;486812;244;27973;-72
2023/10/31 08:50:49;;;;;;;7.57;1.87;;;10.00;99.90;;;;;;486804;244;28528;-71
2023/10/31 08:52:50;;;;;;;5.60;2.30;;;10.00;99.90;;;;;;486791;244;28448;-72
2023/10/31 08:54:52;;;;;;;5.53;1.73;;;10.10;99.90;;;;;;486802;244;28347;-71
2023/10/31 08:56:53;;;;;;;3.87;2.23;;;10.20;99.90;;;;;;486843;240;28462;-72
2023/10/31 08:58:55;;;;;;;4.67;1.83;;;10.30;99.90;;;;;;486857;244;28079;-72
2023/10/31 09:00:56;;;;;;;5.20;1.90;;;10.40;99.90;;;;;;486855;244;28164;-73
2023/10/31 09:02:57;;;;;;;7.37;2.20;;;10.50;99.90;;;;;;486787;244;28057;-72
2023/10/31 09:04:58;;;;;;;3.97;2.13;;;10.50;99.90;;;;;;486813;244;28104;-71
2023/10/31 09:06:59;;;;;;;8.90;2.00;;;10.40;99.90;;;;;;486837;244;28354;-73
2023/10/31 09:09:00;;;;;;;4.17;2.30;;;10.50;99.90;;;;;;486845;244;27976;-71
2023/10/31 09:11:02;;;;;;;5.77;1.80;;;10.50;99.90;;;;;;486828;244;27971;-71
2023/10/31 09:13:03;;;;;;;4.77;2.20;;;10.50;99.90;;;;;;486853;244;27850;-71
2023/10/31 09:15:04;;;;;;;6.47;2.10;;;10.50;99.90;;;;;;486862;244;28689;-72
2023/10/31 09:17:06;;;;;;;5.17;1.90;;;10.60;99.90;;;;;;486808;244;28694;-72
2023/10/31 09:19:07;;;;;;;9.10;2.27;;;10.60;99.90;;;;;;486850;244;28783;-72
2023/10/31 09:21:08;;;;;;;13.43;1.90;;;10.60;99.90;;;;;;486834;244;28591;-71
2023/10/31 09:23:09;;;;;;;27.53;3.67;;;10.50;99.90;;;;;;486779;244;27974;-71
2023/10/31 09:25:11;;;;;;;5.53;1.80;;;10.60;99.90;;;;;;486781;244;27956;-71
2023/10/31 09:27:12;;;;;;;6.10;2.20;;;10.70;99.90;;;;;;486780;244;28114;-72
2023/10/31 09:29:13;;;;;;;3.07;1.77;;;10.70;99.90;;;;;;486803;240;28109;-71
2023/10/31 09:31:14;;;;;;;8.30;1.57;;;10.80;99.90;;;;;;486798;244;28019;-71
2023/10/31 09:33:16;;;;;;;6.03;2.37;;;10.90;99.90;;;;;;486844;244;28269;-72
2023/10/31 09:35:17;;;;;;;9.13;2.20;;;10.90;99.90;;;;;;486855;244;28228;-71
2023/10/31 09:37:18;;;;;;;6.30;2.70;;;10.80;99.90;;;;;;486850;244;28296;-72
2023/10/31 09:39:19;;;;;;;5.53;2.47;;;10.80;99.90;;;;;;486817;244;28524;-71
2023/10/31 09:41:21;;;;;;;8.50;2.17;;;10.80;99.90;;;;;;486863;244;28809;-71
2023/10/31 09:43:22;;;;;;;8.20;2.70;;;10.80;99.90;;;;;;486864;244;28823;-72
2023/10/31 09:45:23;;;;;;;7.47;1.80;;;10.80;99.90;;;;;;486825;244;28177;-71
2023/10/31 09:47:24;;;;;;;3.20;1.80;;;10.80;99.90;;;;;;486863;244;28117;-72
2023/10/31 09:49:26;;;;;;;3.63;2.00;;;10.90;99.90;;;;;;486853;244;28201;-72
2023/10/31 09:51:27;;;;;;;5.07;2.10;;;10.90;99.90;;;;;;486897;244;28167;-71
2023/10/31 09:53:28;;;;;;;3.70;1.70;;;11.00;99.90;;;;;;486851;244;28122;-72
2023/10/31 09:55:29;;;;;;;5.93;1.63;;;11.00;99.90;;;;;;486869;244;28098;-72
2023/10/31 09:57:31;;;;;;;8.00;1.73;;;11.00;99.90;;;;;;486844;244;28102;-72
2023/10/31 09:59:32;;;;;;;4.20;1.87;;;11.00;99.90;;;;;;486842;244;28493;-72
2023/10/31 10:01:33;;;;;;;2.40;1.70;;;10.90;99.90;;;;;;486814;244;28168;-72
2023/10/31 10:03:34;;;;;;;5.83;1.97;;;11.00;99.90;;;;;;486816;244;28724;-71
2023/10/31 10:05:36;;;;;;;5.60;2.00;;;11.00;99.90;;;;;;486849;244;28664;-72
2023/10/31 10:07:37;;;;;;;6.40;2.10;;;11.00;99.90;;;;;;486821;244;28734;-72
2023/10/31 10:09:38;;;;;;;3.00;1.70;;;11.00;99.90;;;;;;486792;244;28149;-73
2023/10/31 10:11:39;;;;;;;4.53;1.80;;;11.00;99.90;;;;;;486825;244;27985;-71
2023/10/31 10:13:41;;;;;;;3.47;1.40;;;11.00;99.90;;;;;;486844;244;28162;-71
2023/10/31 10:15:42;;;;;;;6.33;1.80;;;11.00;99.90;;;;;;486794;244;28109;-71
2023/10/31 10:17:43;;;;;;;3.13;1.57;;;10.90;99.90;;;;;;486814;244;28112;-72
2023/10/31 10:19:44;;;;;;;4.90;1.40;;;10.80;99.90;;;;;;486835;244;28243;-72
2023/10/31 10:21:46;;;;;;;3.60;1.50;;;10.90;99.90;;;;;;486813;244;27967;-71
2023/10/31 10:23:49;;;;;;;3.23;1.50;;;11.00;99.90;;;;;;486834;244;28108;-71
2023/10/31 10:25:48;;;;;;;3.83;1.47;;;11.10;99.90;;;;;;486608;244;28093;-72
2023/10/31 10:27:49;;;;;;;3.53;1.50;;;11.10;99.90;;;;;;486769;244;28743;-71
2023/10/31 10:29:51;;;;;;;2.47;1.77;;;11.00;99.90;;;;;;486816;244;28731;-72
2023/10/31 10:31:52;;;;;;;1.63;1.30;;;11.10;99.90;;;;;;486746;244;28611;-71
2023/10/31 10:33:53;;;;;;;2.73;1.40;;;11.10;99.90;;;;;;486843;244;28717;-71
2023/10/31 10:35:56;;;;;;;2.30;1.60;;;;;;;;;;486838;244;28358;-71
2023/10/31 10:37:57;;;;;;;6.03;1.93;;;11.00;99.90;;;;;;486694;244;27376;-72